logo
App data

Tropical Fish Shop 2

A diverse gameplay combines several genres of “Match 3”, “Hidden object”, “Sim”, and various mini-games.
Store | Hub | SteamDB
Developer: Rainbow Games Publisher: Rainbow Games
Genre: Casual
Languages: English
Tags: Casual (22), Match 3 (9), Hidden Object (5)
Category: Single-player, Steam Trading Cards
Release date: Feb 10, 2012
Price: $3.99
Owners: 0 .. 20,000
Followers: 83
Peak concurrent players yesterday: 1
Playtime total: 04:01 (average) 03:39 (median)

Steam Spy is still in beta, so expect major bugs.

Owners data:

Access restricted.

This feature is only available to users with special access rights. Sorry.

If you want to proceed, you need to register or log in first and then back Steam Spy on Patreon. Look for Indie or Pro pledge.

Don't forget to use the same email as on Steam Spy!

Audience in 2 weeks:

Access restricted.

This feature is only available to users with special access rights. Sorry.

If you want to proceed, you need to register or log in first and then back Steam Spy on Patreon. Look for Indie or Pro pledge.

Don't forget to use the same email as on Steam Spy!

Peak daily concurrent players:

CCU data courtesy of SteamDB. Used with permission.

Hourly concurrent players:

YouTube:

The views data is based on top 50 videos uploaded last week. Actual number of views might be more than the number shown.

The displayed number of videos uploaded yesterday is limited to 50, so if there were more videos uploaded, the number will still show 50.

If the game has commonly used word as its name (like "FEAR" or "Volume") its number of Youtube views might be wrong.

Games similar to this one:

# Game Release date
Price
Score rank
(Userscore / Metascore)
Owners
Players
Playtime (Median)
1 Flowers -Le volume sur printemps- Aug 17, 2016 $19.9997% (97%)0 .. 20,00017.39%00:48 (00:48)
2 Lost Lands: The Four Horsemen Jul 14, 2015 $2.4495% (96%)0 .. 20,0000%00:00 (00:00)
3 Eventide: Slavic Fable Jan 28, 2016 $9.9993% (95%)100,000 .. 200,0000%00:00 (00:00)
4 Legends of Atlantis: Exodus Apr 9, 2012 $6.99N/A (N/A)0 .. 20,0000%00:00 (00:00)
5 Tradewinds Classics Jul 17, 2009 $4.99N/A (N/A)0 .. 20,0000%00:00 (00:00)
6 Peggle Nights Oct 15, 2008 $4.9990% (94%/76%)200,000 .. 500,0000%00:00 (00:00)
7 Chuzzle Deluxe Aug 30, 2006 $4.9984% (92%)50,000 .. 100,0000%00:00 (00:00)
8 YOU DON’T KNOW JACK Feb 8, 2011 N/A84% (92%/71%)0 .. 20,0000%00:00 (00:00)
9 Princess Maker 2 Refine Sep 28, 2016 $19.9984% (92%)20,000 .. 50,0006.25%01:45 (01:09)
10 Hidden Object Bundle 4 in 1 Jun 1, 2014 $7.9984% (92%)20,000 .. 50,0000%00:00 (00:00)
11 Putt-Putt and Pep's Balloon-o-Rama Jan 1, 1996 $4.99N/A (N/A)20,000 .. 50,0000%00:00 (00:00)
12 Gnomes Garden 2 May 18, 2016 $4.99N/A (N/A)20,000 .. 50,0000%00:00 (00:00)
13 Super Jagua Sep 15, 2016 $0.9977% (90%)0 .. 20,0002.94%04:59 (01:39)
14 Grim Legends 3: The Dark City Jun 2, 2016 $9.9977% (90%)50,000 .. 100,0000%00:00 (00:00)
15 Kitty Cat: Jigsaw Puzzles Jul 18, 2016 $0.9977% (90%)50,000 .. 100,0000.46%00:45 (00:15)
16 Luxor 3 Jun 10, 2008 $9.9972% (88%)20,000 .. 50,0000.51%00:04 (00:01)
17 Puzzler World May 28, 2010 $4.9972% (88%)50,000 .. 100,0000%00:00 (00:00)
18 Shufflepuck Cantina Deluxe Dec 6, 2013 $9.9972% (88%)100,000 .. 200,0000%00:00 (00:00)
19 Stikbold! A Dodgeball Adventure Apr 1, 2016 $9.9972% (88%)50,000 .. 100,0000%00:00 (00:00)
20 Alice's Patchwork Mar 3, 2016 $0.4969% (87%)20,000 .. 50,0000%00:00 (00:00)
21 Delicious! Pretty Girls Mahjong Solitaire Oct 14, 2016 $0.9969% (87%)50,000 .. 100,0000%00:00 (00:00)
22 Farm Frenzy 2 Feb 15, 2010 $4.99N/A (N/A)0 .. 20,0000%00:00 (00:00)
23 Burnout Paradise: The Ultimate Box Mar 12, 2009 $19.9969% (87%/87%)1,000,000 .. 2,000,0000.92%01:17 (00:42)
24 Gnomes Garden Dec 18, 2015 $0.4966% (86%)50,000 .. 100,0000%00:00 (00:00)
25 Brink of Consciousness: The Lonely Hearts Murders Nov 24, 2014 $9.9964% (85%)0 .. 20,0000%00:00 (00:00)
26 Lost Grimoires: Stolen Kingdom Nov 10, 2016 $9.9964% (85%)0 .. 20,0000%00:00 (00:00)
27 Plant Tycoon May 12, 2008 $9.9964% (85%)0 .. 20,0000%00:00 (00:00)
28 LUXOR: Mah Jong Jul 13, 2009 $9.9961% (84%)50,000 .. 100,0000%00:00 (00:00)
29 Space Codex May 9, 2016 $0.9961% (84%)100,000 .. 200,0000.67%59:37 (39:44)
30 SimpleRockets Jun 3, 2015 $7.9961% (84%)20,000 .. 50,0000%00:00 (00:00)
31 Little Racers STREET Feb 6, 2014 $5.9961% (84%/62%)100,000 .. 200,0000.49%02:00 (01:19)
32 House of Snark 6-in-1 Bundle Jul 17, 2016 $11.99N/A (N/A)0 .. 20,0000%00:00 (00:00)
33 Hidden Object 6-in-1 bundle Mar 16, 2016 $11.9956% (82%)20,000 .. 50,0000%00:00 (00:00)
34 7 Wonders: Treasures of Seven Nov 14, 2008 $9.9956% (82%)20,000 .. 50,0000%00:00 (00:00)
35 LogicBots Feb 8, 2017 $19.9954% (81%)0 .. 20,0008.33%00:08 (00:02)
36 Rube Works: The Official Rube Goldberg Invention Game Apr 19, 2014 $4.99N/A (N/A)0 .. 20,0000%00:00 (00:00)
37 My Riding Stables: Life with Horses Mar 27, 2014 $14.9952% (80%)0 .. 20,0000%00:00 (00:00)
38 Sea Legends: Phantasmal Light Collector's Edition Jan 15, 2012 $4.9952% (80%)20,000 .. 50,0000%00:00 (00:00)
39 The Wizard's Pen Feb 18, 2009 $4.99N/A (N/A)20,000 .. 50,0000%00:00 (00:00)
40 Crash Dive Jul 6, 2015 $6.9950% (79%)0 .. 20,0000%00:00 (00:00)
41 Qvadriga Jun 13, 2014 $19.9950% (79%/72%)20,000 .. 50,0000%00:00 (00:00)
42 Combat Wings: Battle of Britain Oct 14, 2009 $4.9950% (79%)100,000 .. 200,0000%00:00 (00:00)
43 Steel Armor: Blaze of War Mar 5, 2015 $29.9950% (79%/70%)0 .. 20,0000%00:00 (00:00)
44 Buzz Aldrin's Space Program Manager Oct 31, 2014 $29.9948% (78%/62%)0 .. 20,0006.25%03:15 (01:05)
45 Echelon: Wind Warriors Feb 3, 2004 $3.9944% (76%/63%)0 .. 20,0000%00:00 (00:00)
46 Toilet Tycoon Mar 1, 2000 $4.9944% (76%)0 .. 20,0000%00:00 (00:00)
47 Virtual Villagers: The Lost Children May 12, 2008 $9.99N/A (N/A)0 .. 20,0000%00:00 (00:00)
48 Rotastic Oct 11, 2012 $9.99N/A (N/A)0 .. 20,0000%00:00 (00:00)
49 Cake Mania Collection Jul 17, 2009 $14.99N/A (N/A)0 .. 20,0000%00:00 (00:00)
50 Amazing Adventures Around the World Apr 15, 2009 $4.99N/A (N/A)20,000 .. 50,0000%00:00 (00:00)
51 Typer Shark! Deluxe Aug 30, 2006 $4.9940% (74%)20,000 .. 50,0000%00:00 (00:00)
52 Teddy Floppy Ear - The Race May 22, 2015 $4.9940% (74%)100,000 .. 200,0000.51%02:17 (01:31)
53 Ski Region Simulator - Gold Edition Jan 16, 2013 $8.9940% (74%)20,000 .. 50,0002.27%01:22 (00:27)
54 Evolution Planet: Gold Edition Jul 7, 2016 $4.99N/A (N/A)0 .. 20,0000%00:00 (00:00)
55 Cooking Dash Aug 12, 2009 $9.99N/A (N/A)0 .. 20,0000%00:00 (00:00)
56 Amazing Adventures The Lost Tomb Dec 13, 2007 $4.99N/A (N/A)20,000 .. 50,0000%00:00 (00:00)
57 aerofly RC 7 Nov 6, 2014 $39.9935% (71%)0 .. 20,0000%00:00 (00:00)
58 Democracy 3 Africa Apr 12, 2016 $14.9935% (71%)50,000 .. 100,0001.89%00:58 (00:19)
59 Football Mogul 2014 Sep 4, 2013 $0.99N/A (N/A)20,000 .. 50,0000%00:00 (00:00)
60 IL-2 Sturmovik: Battle of Stalingrad Oct 22, 2014 $49.9935% (71%/74%)50,000 .. 100,0008.57%01:57 (02:45)
61 Mystery Case Files: Madame Fate Dec 14, 2007 $6.99N/A (N/A)0 .. 20,0000%00:00 (00:00)
62 MiniDrivers Aug 20, 2015 $5.9933% (70%)20,000 .. 50,0000%00:00 (00:00)
63 StuntMANIA Reloaded Nov 13, 2014 $4.9933% (70%)20,000 .. 50,0000%00:00 (00:00)
64 Splendor Sep 17, 2015 $9.9931% (69%)0 .. 20,0002%00:01 (00:00)
65 Little Farm Jun 10, 2008 $9.9930% (68%)20,000 .. 50,0000.47%00:07 (00:02)
66 Chronicle Keepers: The Dreaming Garden Jun 11, 2015 $4.9928% (67%)0 .. 20,0000%00:00 (00:00)
67 Obliteracers Feb 23, 2016 $14.9927% (66%/78%)20,000 .. 50,0003.92%03:00 (02:00)
68 Twisted Lands Trilogy: Collector's Edition Oct 28, 2015 $19.9927% (66%)20,000 .. 50,0000%00:00 (00:00)
69 Farming 6-in-1 bundle Jun 2, 2016 $5.99N/A (N/A)0 .. 20,0000%00:00 (00:00)
70 City Life 2008 Sep 29, 2008 $9.9926% (65%)20,000 .. 50,0000%00:00 (00:00)
71 Pro Cycling Manager 2014 Jun 19, 2014 $9.9924% (64%)20,000 .. 50,0000%00:00 (00:00)
72 Eagle Flight Dec 20, 2016 $19.9924% (64%/74%)0 .. 20,0000%00:00 (00:00)
73 Castle: Never Judge a Book by its Cover Jul 9, 2013 N/A24% (64%)20,000 .. 50,0000%00:00 (00:00)
74 Mahjong Pretty Girls Battle : School Girls Edition Jun 22, 2015 $14.9923% (63%)20,000 .. 50,0000%00:00 (00:00)
75 Scrabble Jun 10, 2013 $9.99N/A (N/A)0 .. 20,0000%00:00 (00:00)
76 PAC-MAN CHAMPIONSHIP EDITION 2 Sep 13, 2016 $12.9923% (63%)50,000 .. 100,0000%00:00 (00:00)
77 Contract With The Devil Dec 11, 2015 $4.9922% (62%)20,000 .. 50,0000.35%03:32 (01:10)
78 Trackmania Turbo Mar 24, 2016 $39.9922% (62%)50,000 .. 100,0006.25%03:38 (04:17)
79 Aerofly FS 1 Flight Simulator Oct 17, 2012 $19.9921% (61%)0 .. 20,0000%00:00 (00:00)
80 Railroad Pioneer Oct 17, 2003 $4.9921% (61%/50%)20,000 .. 50,0000%00:00 (00:00)
81 Escape The Past Sep 14, 2016 $4.99N/A (N/A)0 .. 20,0000%00:00 (00:00)
82 Zooloretto Nov 1, 2011 $2.99N/A (N/A)0 .. 20,0000%00:00 (00:00)
83 Meridian: Age of Invention Jan 28, 2013 $2.9920% (60%)20,000 .. 50,0000%00:00 (00:00)
84 Gems of the Aztecs Apr 22, 2016 $4.9920% (60%)50,000 .. 100,0000%00:00 (00:00)
85 Football Club Simulator - FCS NS#19 Nov 30, 2018 $9.9520% (60%)0 .. 20,0000%00:00 (00:00)
86 Hacker Evolution: Untold Sep 14, 2010 $4.9918% (58%)200,000 .. 500,0000%00:00 (00:00)
87 Riding Star - Horse Championship! Mar 27, 2014 $9.99N/A (N/A)0 .. 20,0000%00:00 (00:00)
88 Trackday Manager Mar 31, 2016 N/A16% (56%)0 .. 20,0000%00:00 (00:00)
89 Luxor: Quest for the Afterlife Dec 15, 2008 $9.99N/A (N/A)0 .. 20,0000.57%00:02 (00:00)
90 Solitaire Christmas. Match 2 Cards Dec 24, 2015 $4.9915% (55%)50,000 .. 100,0000%00:00 (00:00)
91 Cities XL Platinum Feb 6, 2013 $9.9915% (55%)200,000 .. 500,0000.16%01:36 (00:32)
92 Pacific Storm Allies Aug 18, 2008 $7.9915% (55%/60%)50,000 .. 100,0000%00:00 (00:00)
93 Mystery Masters: Psycho Train Deluxe Edition Feb 3, 2015 $9.9914% (54%)20,000 .. 50,0000.42%02:04 (00:41)
94 My Best Friends - Cats & Dogs Mar 27, 2014 $14.99N/A (N/A)0 .. 20,0000%00:00 (00:00)
95 My Riding Stables: Your Horse world Mar 28, 2014 $14.99N/A (N/A)0 .. 20,0000%00:00 (00:00)
96 Chess Knight 2 Sep 11, 2016 $2.9911% (50%)50,000 .. 100,0000.47%01:46 (00:35)
97 300 Dwarves Jun 17, 2013 $6.9911% (50%)0 .. 20,0000%00:00 (00:00)
98 Shadows: Price For Our Sins Bonus Edition Mar 21, 2013 $9.9911% (49%)50,000 .. 100,0000%00:00 (00:00)
99 Pure Pool Jul 31, 2014 $9.9910% (48%/68%)0 .. 20,00012.5%02:10 (01:08)
100 Lords of Football Apr 5, 2013 $14.9910% (47%/52%)20,000 .. 50,0000%00:00 (00:00)
101 Ghost Encounters: Deadwood - Collector's Edition Mar 13, 2015 $4.9910% (47%)20,000 .. 50,0000%00:00 (00:00)
102 Ludo Supremo Jun 8, 2016 $1.999% (46%)20,000 .. 50,0000%00:00 (00:00)
103 Transport Giant Jun 8, 2004 $9.999% (45%)20,000 .. 50,0000%00:00 (00:00)
104 Professional Farmer 2014 Nov 27, 2013 $14.998% (44%)200,000 .. 500,0000%00:00 (00:00)
105 Princess Isabella: The Rise of an Heir May 12, 2016 $9.997% (40%)20,000 .. 50,0000%00:00 (00:00)
106 Silent Hunter 5: Battle of the Atlantic Mar 2010 $9.997% (40%/62%)100,000 .. 200,0001.75%14:41 (04:53)
107 Echelon Apr 15, 2001 $3.996% (39%/70%)20,000 .. 50,0000%00:00 (00:00)
108 Airport Firefighters - The Simulation May 13, 2015 $17.994% (34%)20,000 .. 50,0000%00:00 (00:00)
109 Industry Empire Jul 30, 2014 $11.994% (31%)20,000 .. 50,0000%00:00 (00:00)
110 Fill Up! Feb 17, 2016 $2.99N/A (N/A)0 .. 20,0000%00:00 (00:00)
111 Switch Galaxy Ultra Nov 20, 2015 $9.992% (20%)20,000 .. 50,0000%00:00 (00:00)
112 Driving School Simulator Sep 25, 2014 $14.992% (20%)0 .. 20,0000%00:00 (00:00)
113 Luxury Hotel Emporium Aug 7, 2015 $4.99N/A (N/A)0 .. 20,0000%00:00 (00:00)
114 Black Viper: Sophia's Fate Sep 5, 2014 $9.991% (8%)0 .. 20,0000%00:00 (00:00)
115 Block Blowout Oct 26, 2016 $0.99N/A (N/A)50,000 .. 100,0000%00:00 (00:00)
116 Fantastic 4 In A Row 2 Aug 15, 2016 $0.99N/A (N/A)50,000 .. 100,0000.47%00:01 (00:00)
117 Adventures of Robinson Crusoe Jan 9, 2015 $9.99N/A (N/A)20,000 .. 50,0000%00:00 (00:00)
118 Discovery! A Seek and Find Adventure Jul 29, 2008 $9.99N/A (N/A)0 .. 20,0000%00:00 (00:00)
119 Them - The Summoning May 16, 2014 $4.99N/A (N/A)0 .. 20,0000%00:00 (00:00)
120 My Pet Hotel Mar 27, 2014 $14.99N/A (N/A)0 .. 20,0000%00:00 (00:00)
121 Rush for gold: California Mar 9, 2016 $3.99N/A (N/A)20,000 .. 50,0000%00:00 (00:00)
122 Lost Legends: The Weeping Woman Collector's Edition Oct 21, 2015 $14.99N/A (N/A)20,000 .. 50,0000%00:00 (00:00)
123 Nokori Mar 25, 2016 $0.99N/A (N/A)0 .. 20,0001.96%02:54 (00:58)
124 Barnyard Mahjong 3 Jul 29, 2016 $1.99N/A (N/A)50,000 .. 100,0000%00:00 (00:00)
125 Dessert Storm Oct 23, 2016 $0.99N/A (N/A)50,000 .. 100,0000.48%02:03 (00:41)
126 Farm Frenzy 3 Feb 15, 2010 $9.99N/A (N/A)0 .. 20,0000%00:00 (00:00)
127 The Hidden Dragon Jul 26, 2016 $2.99N/A (N/A)0 .. 20,0000%00:00 (00:00)
128 Bubble Blowout Oct 24, 2016 $0.99N/A (N/A)50,000 .. 100,0000%00:00 (00:00)

Tags over time:

Access restricted.

This feature is only available to users with special access rights. Sorry.

If you want to proceed, you need to register or log in first and then back Steam Spy on Patreon. Look for Indie or Pro pledge.

Don't forget to use the same email as on Steam Spy!

Owners of this game also own:

Access restricted.

This feature is only available to users with special access rights. Sorry.

If you want to proceed, you need to register or log in first and then back Steam Spy on Patreon. Look for Indie or Pro pledge.

Don't forget to use the same email as on Steam Spy!

Playtime distribution:

Access restricted.

This feature is only available to users with special access rights. Sorry.

If you want to proceed, you need to register or log in first and then back Steam Spy on Patreon. Look for Indie or Pro pledge.

Don't forget to use the same email as on Steam Spy!

Playtime (2 weeks):

Access restricted.

This feature is only available to users with special access rights. Sorry.

If you want to proceed, you need to register or log in first and then back Steam Spy on Patreon. Look for Indie or Pro pledge.

Don't forget to use the same email as on Steam Spy!

User reviews:

Login required.

Please register or log in to see this information.